Time;durP1;ratioP1;P1;durP2;ratioP2;P2;SDS_P1;SDS_P2;PMS_P1;PMS_P2;Temp;Humidity;BMP_temperature;BMP_pressure;BME280_temperature;BME280_humidity;BME280_pressure;Samples;Min_cycle;Max_cycle;Signal;HPM_P1;HPM_P2
2022/05/04 00:01:02;;;;;;;4.03;3.73;;;;;;;9.06;83.03;97585.09;6213363;28;20224;-83
2022/05/04 00:04:06;;;;;;;3.80;3.50;;;;;;;9.12;83.40;97579.34;6204885;28;20626;-83
2022/05/04 00:07:08;;;;;;;4.40;3.73;;;;;;;9.11;83.38;97577.69;6225027;28;20318;-82
2022/05/04 00:10:11;;;;;;;4.07;3.77;;;;;;;9.08;83.01;97570.88;6231414;28;20272;-82
2022/05/04 00:13:13;;;;;;;4.70;3.47;;;;;;;9.07;83.85;97573.63;6197707;28;20242;-82
2022/05/04 00:16:15;;;;;;;4.00;3.67;;;;;;;9.08;83.59;97573.50;6212766;28;20226;-83
2022/05/04 00:19:18;;;;;;;4.43;4.03;;;;;;;9.09;83.74;97572.53;6196892;28;20310;-82
2022/05/04 00:22:22;;;;;;;4.20;3.80;;;;;;;9.10;83.22;97578.63;6229097;28;20215;-82
2022/05/04 00:25:24;;;;;;;3.73;3.43;;;;;;;9.08;83.07;97583.19;6196963;28;20633;-83
2022/05/04 00:28:27;;;;;;;4.07;3.70;;;;;;;9.06;83.43;97577.22;6195900;28;20232;-83
2022/05/04 00:31:30;;;;;;;4.00;3.50;;;;;;;9.03;83.44;97582.69;6214440;28;20223;-82
2022/05/04 00:34:33;;;;;;;4.00;3.70;;;;;;;8.97;83.71;97576.09;6212675;28;20231;-83
2022/05/04 00:37:35;;;;;;;4.10;3.70;;;;;;;8.93;83.97;97581.72;6212370;28;20228;-83
2022/05/04 00:40:37;;;;;;;4.30;3.90;;;;;;;8.89;83.69;97576.66;6214248;28;20289;-82
2022/05/04 00:43:39;;;;;;;3.77;3.43;;;;;;;8.87;84.29;97581.22;6203969;28;20370;-83
2022/05/04 00:46:42;;;;;;;4.03;3.70;;;;;;;8.85;83.86;97590.19;6202663;28;20322;-83
2022/05/04 00:49:46;;;;;;;4.77;3.60;;;;;;;8.83;84.00;97584.19;6196447;28;20228;-82
2022/05/04 00:52:50;;;;;;;4.50;3.57;;;;;;;8.76;83.81;97575.09;6213379;28;20231;-83
2022/05/04 00:55:54;;;;;;;4.07;3.70;;;;;;;8.72;84.93;97582.34;6233649;28;20724;-82
2022/05/04 00:58:57;;;;;;;5.07;3.70;;;;;;;8.69;84.73;97585.22;6231608;28;20234;-82
2022/05/04 01:02:00;;;;;;;3.87;3.43;;;;;;;8.69;84.97;97581.72;6213256;28;20232;-82
2022/05/04 01:05:02;;;;;;;4.17;3.80;;;;;;;8.66;84.89;97584.63;6206508;28;20715;-83
2022/05/04 01:08:04;;;;;;;4.50;4.10;;;;;;;8.62;84.63;97584.00;6215799;28;20259;-83
2022/05/04 01:11:06;;;;;;;3.90;3.60;;;;;;;8.59;84.88;97586.00;6195739;28;20603;-82
2022/05/04 01:14:11;;;;;;;3.50;3.20;;;;;;;8.57;84.52;97591.41;6213259;28;20754;-83
2022/05/04 01:17:13;;;;;;;4.50;4.10;;;;;;;8.53;84.81;97592.56;6211871;28;20362;-82
2022/05/04 01:20:17;;;;;;;4.47;4.07;;;;;;;8.46;84.58;97596.59;6205440;28;20239;-83
2022/05/04 01:23:19;;;;;;;3.87;3.53;;;;;;;8.39;85.03;97595.34;6225623;28;20283;-82
2022/05/04 01:26:21;;;;;;;4.37;3.93;;;;;;;8.30;85.05;97603.88;6211466;28;20234;-84
2022/05/04 01:29:23;;;;;;;4.17;3.87;;;;;;;8.25;85.23;97598.97;6211244;28;20227;-82
2022/05/04 01:32:26;;;;;;;4.47;4.00;;;;;;;8.22;84.65;97598.34;6211515;28;20252;-83
2022/05/04 01:35:28;;;;;;;4.20;3.70;;;;;;;8.14;84.78;97606.78;6211836;28;20729;-83
2022/05/04 01:38:30;;;;;;;4.33;3.93;;;;;;;8.07;85.22;97600.28;6207342;28;20737;-82
2022/05/04 01:44:53;;;;;;;4.87;4.47;;;;;;;8.00;84.79;97601.66;6211363;28;20787;-83
2022/05/04 01:47:55;;;;;;;4.50;3.73;;;;;;;7.95;84.64;97601.16;6212287;28;20595;-82
2022/05/04 01:50:57;;;;;;;4.97;4.47;;;;;;;7.92;85.12;97607.47;6203601;28;20245;-82
2022/05/04 01:53:59;;;;;;;7.87;4.47;;;;;;;7.88;84.90;97602.56;6196370;28;20236;-83
2022/05/04 01:57:01;;;;;;;4.77;4.10;;;;;;;7.89;85.31;97607.66;6201844;28;20237;-83
2022/05/04 02:00:06;;;;;;;4.60;4.20;;;;;;;7.91;85.00;97595.28;6227064;28;20248;-82
2022/05/04 02:03:15;;;;;;;4.20;3.77;;;;;;;7.92;85.58;97599.59;6228895;28;20235;-83
2022/05/04 02:06:17;;;;;;;4.57;4.07;;;;;;;7.93;85.26;97598.63;6194235;28;20252;-82
2022/05/04 02:09:19;;;;;;;4.20;3.80;;;;;;;7.96;84.99;97590.53;6194858;28;20206;-83
2022/05/04 02:12:22;;;;;;;4.67;4.23;;;;;;;7.95;85.42;97593.28;6195052;28;20224;-83
2022/05/04 02:15:24;;;;;;;5.00;4.47;;;;;;;7.92;84.91;97596.94;6199072;28;20231;-82
2022/05/04 02:18:26;;;;;;;4.33;3.93;;;;;;;7.92;85.52;97588.22;6202370;28;20334;-82
2022/05/04 02:21:29;;;;;;;5.97;4.57;;;;;;;7.95;85.18;97595.91;6202626;28;20806;-82
2022/05/04 02:24:30;;;;;;;4.20;3.80;;;;;;;7.99;85.14;97587.69;6200741;28;20280;-83
2022/05/04 02:27:32;;;;;;;4.77;4.13;;;;;;;8.02;85.06;97584.84;6210340;28;20231;-82
2022/05/04 02:30:34;;;;;;;6.70;4.60;;;;;;;8.05;85.67;97589.03;6194512;28;20255;-82
2022/05/04 02:33:36;;;;;;;4.50;4.10;;;;;;;8.08;85.13;97583.56;6210476;28;20313;-82
2022/05/04 02:39:59;;;;;;;4.80;4.33;;;;;;;8.13;84.99;97605.09;6226838;28;20317;-83
2022/05/04 02:43:03;;;;;;;5.23;4.83;;;;;;;8.15;85.55;97595.31;6236518;28;20235;-83
2022/05/04 02:46:20;;;;;;;4.77;4.37;;;;;;;8.17;85.40;97590.81;6210488;28;20365;-83
2022/05/04 02:49:22;;;;;;;5.10;4.60;;;;;;;8.25;85.24;97598.97;6194026;28;20875;-83
2022/05/04 02:52:24;;;;;;;4.63;4.00;;;;;;;8.28;86.12;97598.75;6202031;28;20384;-82
2022/05/04 02:55:26;;;;;;;5.90;4.90;;;;;;;8.30;85.44;97601.25;6215274;28;20613;-83
2022/05/04 02:58:28;;;;;;;5.00;4.60;;;;;;;8.33;85.40;97606.31;6226431;28;20230;-82
2022/05/04 03:04:50;;;;;;;5.00;4.57;;;;;;;8.34;85.46;97603.59;6212037;28;20226;-83
2022/05/04 03:07:52;;;;;;;4.83;4.20;;;;;;;8.35;85.71;97605.28;6209958;28;20261;-83
2022/05/04 03:14:17;;;;;;;5.30;4.80;;;;;;;8.39;85.47;97609.34;6226569;28;20232;-82
2022/05/04 03:17:20;;;;;;;5.47;4.33;;;;;;;8.38;85.76;97612.09;6203779;28;20232;-83
2022/05/04 03:20:22;;;;;;;4.60;4.20;;;;;;;8.39;85.48;97621.66;6206037;28;20254;-84
2022/05/04 03:23:23;;;;;;;4.97;4.50;;;;;;;8.39;85.73;97624.28;6225100;28;20226;-83
2022/05/04 03:26:25;;;;;;;4.97;4.57;;;;;;;8.37;85.85;97623.56;6197294;28;20366;-83
2022/05/04 03:29:28;;;;;;;4.60;4.13;;;;;;;8.36;85.67;97624.53;6198431;28;20256;-83
2022/05/04 03:32:30;;;;;;;4.97;4.50;;;;;;;8.38;86.38;97627.88;6207802;28;20273;-83
2022/05/04 03:35:32;;;;;;;5.73;4.37;;;;;;;8.40;86.11;97632.06;6232938;28;20270;-83
2022/05/04 03:38:34;;;;;;;4.70;4.20;;;;;;;8.40;86.17;97639.94;6214226;28;20227;-82
2022/05/04 03:41:36;;;;;;;5.13;4.63;;;;;;;8.39;85.59;97633.00;6197839;28;20318;-83
2022/05/04 03:44:38;;;;;;;4.70;4.30;;;;;;;8.38;86.29;97633.97;6197749;28;20337;-82
2022/05/04 03:47:40;;;;;;;7.33;5.00;;;;;;;8.39;86.30;97640.91;6193306;28;20266;-84
2022/05/04 03:50:45;;;;;;;4.63;4.23;;;;;;;8.42;86.10;97653.00;6203697;28;20722;-82
2022/05/04 03:53:51;;;;;;;6.27;5.20;;;;;;;8.46;85.79;97657.09;6218992;28;20350;-83
2022/05/04 03:56:53;;;;;;;4.90;4.33;;;;;;;8.46;86.09;97662.34;6196954;28;20219;-82
2022/05/04 03:59:55;;;;;;;6.60;4.53;;;;;;;8.46;85.97;97664.97;6238514;28;20251;-83
2022/05/04 04:02:57;;;;;;;5.23;4.07;;;;;;;8.47;85.85;97667.50;6195908;28;20235;-83
2022/05/04 04:05:59;;;;;;;4.80;4.40;;;;;;;8.52;85.81;97675.03;6229307;28;20231;-82
2022/05/04 04:09:03;;;;;;;4.80;4.40;;;;;;;8.58;86.38;97676.41;6197061;28;20231;-83
2022/05/04 04:12:05;;;;;;;5.00;4.53;;;;;;;8.61;85.91;97668.28;6197313;28;20609;-82
2022/05/04 04:15:08;;;;;;;4.17;3.77;;;;;;;8.62;86.19;97678.69;6199873;28;20242;-83
2022/05/04 04:18:10;;;;;;;4.57;4.10;;;;;;;8.64;86.28;97670.69;6189603;28;20288;-82
2022/05/04 04:24:33;;;;;;;4.60;4.20;;;;;;;8.70;86.45;97689.50;6233284;28;20311;-83
2022/05/04 04:27:35;;;;;;;4.80;4.23;;;;;;;8.72;85.75;97679.69;6196006;28;20717;-82
2022/05/04 04:30:38;;;;;;;4.73;4.33;;;;;;;8.75;86.05;97681.28;6212415;28;20265;-83
2022/05/04 04:33:40;;;;;;;4.33;3.90;;;;;;;8.76;86.16;97688.22;6212439;28;20618;-83
2022/05/04 04:36:43;;;;;;;4.57;4.17;;;;;;;8.75;85.92;97691.81;6227398;28;20274;-83
2022/05/04 04:39:45;;;;;;;4.87;4.37;;;;;;;8.72;85.78;97692.84;6196650;28;20293;-83
2022/05/04 04:42:47;;;;;;;4.27;3.87;;;;;;;8.70;85.41;97699.19;6196401;28;20242;-82
2022/05/04 04:45:50;;;;;;;4.57;4.17;;;;;;;8.71;86.00;97712.22;6201112;28;20354;-83
2022/05/04 04:48:52;;;;;;;4.93;4.43;;;;;;;8.66;85.69;97711.72;6188347;28;20483;-83
2022/05/04 04:51:54;;;;;;;4.53;4.13;;;;;;;8.61;85.53;97713.84;6209339;28;20593;-82
2022/05/04 04:54:56;;;;;;;5.70;4.90;;;;;;;8.60;86.17;97714.78;6195956;28;20273;-82
2022/05/04 04:57:58;;;;;;;5.13;4.67;;;;;;;8.64;86.07;97716.25;6215838;28;20299;-83
2022/05/04 05:01:00;;;;;;;5.20;4.73;;;;;;;8.64;85.96;97723.31;6198885;28;20270;-82
2022/05/04 05:04:02;;;;;;;5.93;5.33;;;;;;;8.62;86.32;97725.19;6215162;28;20330;-82
2022/05/04 05:07:04;;;;;;;5.33;4.83;;;;;;;8.62;85.83;97720.78;6213963;28;20768;-81
2022/05/04 05:10:06;;;;;;;7.97;5.70;;;;;;;8.60;85.83;97727.09;6211055;28;20227;-82
2022/05/04 05:13:08;;;;;;;6.20;5.60;;;;;;;8.60;85.63;97725.31;6211058;28;20318;-82
2022/05/04 05:16:11;;;;;;;6.07;5.47;;;;;;;8.63;85.74;97724.25;6211737;28;20231;-82
2022/05/04 05:19:13;;;;;;;5.77;5.27;;;;;;;8.63;86.04;97726.88;6239287;28;20230;-82
2022/05/04 05:22:15;;;;;;;5.50;5.00;;;;;;;8.66;85.38;97729.31;6196206;28;20703;-82
2022/05/04 05:25:17;;;;;;;7.27;5.37;;;;;;;8.67;85.59;97733.63;6239931;28;20237;-82
2022/05/04 05:28:19;;;;;;;7.30;5.67;;;;;;;8.75;85.82;97728.63;6227326;28;20603;-82
2022/05/04 05:31:21;;;;;;;6.20;5.60;;;;;;;8.85;85.29;97733.13;6212393;28;20840;-82
2022/05/04 05:34:24;;;;;;;6.90;6.20;;;;;;;8.96;84.48;97726.25;6202967;28;20285;-83
2022/05/04 05:37:26;;;;;;;6.17;5.63;;;;;;;9.12;84.53;97724.16;6214188;28;20249;-83
2022/05/04 05:40:28;;;;;;;7.10;6.13;;;;;;;9.27;83.91;97728.31;6211598;28;20703;-83
2022/05/04 05:43:30;;;;;;;6.83;5.63;;;;;;;9.44;83.84;97729.69;6206764;28;20686;-83
2022/05/04 05:46:32;;;;;;;6.10;5.50;;;;;;;9.58;84.37;97721.59;6209398;28;20289;-83
2022/05/04 05:49:34;;;;;;;10.23;8.23;;;;;;;9.85;83.47;97719.47;6194606;28;20241;-83
2022/05/04 05:52:36;;;;;;;11.93;8.47;;;;;;;10.36;81.37;97708.50;6194397;28;20326;-83
2022/05/04 05:55:38;;;;;;;8.43;7.53;;;;;;;10.82;79.73;97715.38;6210113;28;20693;-83
2022/05/04 05:58:40;;;;;;;7.07;6.40;;;;;;;11.14;79.09;97718.88;6227338;28;20232;-83
2022/05/04 06:01:48;;;;;;;7.70;7.00;;;;;;;11.44;78.00;97718.16;6227398;28;20649;-83
2022/05/04 06:04:50;;;;;;;8.60;7.37;;;;;;;11.75;76.41;97719.94;6210421;28;20241;-83
2022/05/04 06:07:53;;;;;;;8.27;7.47;;;;;;;12.08;75.10;97725.97;6228444;28;20247;-84
2022/05/04 06:11:00;;;;;;;8.27;7.47;;;;;;;12.46;73.67;97720.03;6200531;28;20225;-83
2022/05/04 06:14:02;;;;;;;7.30;5.83;;;;;;;12.81;71.72;97706.31;6210997;28;20236;-84
2022/05/04 06:17:04;;;;;;;7.43;6.63;;;;;;;13.10;70.50;97714.31;6209912;28;20226;-84
2022/05/04 06:20:07;;;;;;;6.70;6.00;;;;;;;13.37;69.75;97713.66;6210935;28;20224;-85
2022/05/04 06:23:09;;;;;;;5.20;4.77;;;;;;;13.53;69.73;97711.28;6193668;28;20242;-83
2022/05/04 06:26:13;;;;;;;5.10;4.70;;;;;;;13.66;68.91;97706.53;6210628;28;20269;-84
2022/05/04 06:29:15;;;;;;;6.07;4.70;;;;;;;13.83;68.76;97707.63;6186687;28;20233;-83
2022/05/04 06:35:39;;;;;;;6.67;5.40;;;;;;;14.17;67.02;97714.09;6227953;28;20331;-83
2022/05/04 06:38:45;;;;;;;5.40;4.90;;;;;;;14.51;65.58;97706.44;6209793;28;20238;-83
2022/05/04 06:41:49;;;;;;;5.67;4.93;;;;;;;14.68;65.03;97710.13;6226854;28;20242;-84
2022/05/04 06:44:51;;;;;;;6.03;5.23;;;;;;;14.90;64.63;97715.03;6193998;28;20262;-84
2022/05/04 06:47:53;;;;;;;6.50;5.90;;;;;;;15.16;61.96;97712.50;6209877;28;20243;-84
2022/05/04 06:50:55;;;;;;;6.73;5.60;;;;;;;15.65;60.44;97708.47;6210025;28;20239;-84
2022/05/04 06:53:57;;;;;;;5.30;4.83;;;;;;;16.18;58.83;97710.16;6197805;28;20309;-84
2022/05/04 06:57:19;;;;;;;5.63;5.13;;;;;;;16.53;56.75;97714.53;6231320;28;20224;-84
2022/05/04 07:00:21;;;;;;;5.70;4.63;;;;;;;16.66;56.76;97709.63;6198577;28;20691;-84
2022/05/04 07:03:23;;;;;;;5.27;4.53;;;;;;;16.78;56.17;97708.31;6212721;28;20583;-84
2022/05/04 07:06:26;;;;;;;5.60;5.00;;;;;;;16.78;56.39;97711.00;6214861;28;20247;-84
2022/05/04 07:09:28;;;;;;;5.00;4.60;;;;;;;16.65;56.00;97718.63;6198497;28;20302;-84
2022/05/04 07:12:30;;;;;;;4.97;4.57;;;;;;;16.46;56.86;97718.84;6215484;28;20664;-84
2022/05/04 07:15:33;;;;;;;6.30;4.83;;;;;;;16.20;56.73;97717.00;6204098;28;20223;-85
2022/05/04 07:18:35;;;;;;;4.43;4.10;;;;;;;16.22;57.19;97725.69;6236175;28;20703;-84
2022/05/04 07:21:37;;;;;;;6.00;5.50;;;;;;;16.42;56.19;97725.47;6216638;28;20239;-84
2022/05/04 07:24:40;;;;;;;5.30;4.80;;;;;;;16.81;55.17;97725.84;6235080;28;20266;-84
2022/05/04 07:27:43;;;;;;;4.63;4.23;;;;;;;17.08;54.77;97717.56;6190387;28;20338;-84
2022/05/04 07:30:45;;;;;;;5.03;4.60;;;;;;;17.22;54.14;97718.78;6217945;28;20405;-83
2022/05/04 07:33:47;;;;;;;5.23;4.70;;;;;;;17.27;53.86;97721.78;6220872;28;20227;-84
2022/05/04 07:36:49;;;;;;;4.00;3.47;;;;;;;17.56;54.98;97730.19;6215680;28;20541;-84
2022/05/04 07:43:12;;;;;;;5.03;4.40;;;;;;;19.06;50.30;97717.06;6231153;28;20236;-85
2022/05/04 07:46:14;;;;;;;4.97;4.57;;;;;;;19.55;48.21;97717.59;6207032;28;20234;-84
2022/05/04 07:49:16;;;;;;;5.37;4.87;;;;;;;20.08;47.02;97722.00;6198598;28;20228;-84
2022/05/04 07:52:19;;;;;;;4.40;3.90;;;;;;;20.30;46.91;97722.97;6201366;28;20771;-84
2022/05/04 07:55:21;;;;;;;4.33;3.93;;;;;;;20.23;46.60;97720.19;6216348;28;20326;-84
2022/05/04 07:58:23;;;;;;;5.07;4.67;;;;;;;19.84;46.99;97731.09;6197882;28;20314;-85
2022/05/04 08:04:52;;;;;;;5.67;4.50;;;;;;;19.51;47.18;97735.03;6210454;28;20228;-84
2022/05/04 08:07:55;;;;;;;5.60;4.67;;;;;;;19.23;47.63;97736.50;6197717;28;20243;-83
2022/05/04 08:10:57;;;;;;;6.30;5.70;;;;;;;18.72;48.95;97738.75;6217214;28;20255;-85
2022/05/04 08:13:59;;;;;;;5.00;4.60;;;;;;;18.77;49.26;97734.53;6232291;28;20230;-84
2022/05/04 08:17:02;;;;;;;6.87;5.53;;;;;;;18.78;49.55;97733.53;6233374;28;20255;-85
2022/05/04 08:20:05;;;;;;;8.53;6.20;;;;;;;18.72;49.45;97731.56;6201420;28;20235;-85
2022/05/04 08:23:07;;;;;;;4.53;4.13;;;;;;;19.21;49.42;97734.00;6233378;28;20383;-85
2022/05/04 08:26:11;;;;;;;5.87;5.20;;;;;;;19.98;47.41;97736.66;6206937;28;20728;-85
2022/05/04 08:29:13;;;;;;;4.23;3.83;;;;;;;20.74;47.06;97728.38;6215394;28;20228;-85
2022/05/04 08:32:15;;;;;;;3.50;3.20;;;;;;;21.55;45.40;97734.53;6210264;28;20219;-85
2022/05/04 08:35:18;;;;;;;6.10;5.50;;;;;;;21.21;44.04;97736.00;6202843;28;20239;-85
2022/05/04 08:38:20;;;;;;;5.23;4.73;;;;;;;21.26;43.64;97738.16;6233746;28;20220;-84
2022/05/04 08:41:23;;;;;;;3.97;3.67;;;;;;;21.67;44.52;97735.66;6215822;28;20228;-85
2022/05/04 08:44:25;;;;;;;3.73;3.43;;;;;;;22.16;43.79;97730.34;6215492;28;20315;-85
2022/05/04 08:47:31;;;;;;;4.73;4.30;;;;;;;22.08;43.07;97739.38;6191621;28;20224;-85
2022/05/04 08:50:34;;;;;;;4.20;3.80;;;;;;;22.09;43.26;97746.44;6188196;28;20259;-85
2022/05/04 08:53:38;;;;;;;4.37;4.07;;;;;;;22.59;42.45;97736.44;6188196;28;20289;-85
2022/05/04 08:56:40;;;;;;;4.73;4.33;;;;;;;23.17;41.67;97736.97;6195638;28;20371;-85
2022/05/04 08:59:43;;;;;;;4.43;4.07;;;;;;;23.11;41.37;97735.09;6211888;28;20860;-85
2022/05/04 09:02:45;;;;;;;4.37;3.60;;;;;;;22.85;41.83;97734.97;6229257;28;20247;-85
2022/05/04 09:05:53;;;;;;;3.73;3.43;;;;;;;22.60;42.84;97732.72;6213019;28;20313;-85
2022/05/04 09:09:16;;;;;;;6.03;5.37;;;;;;;22.37;41.70;97734.84;6212040;28;20224;-85
2022/05/04 09:12:18;;;;;;;4.20;3.90;;;;;;;22.11;41.84;97735.50;6212425;28;20219;-85
2022/05/04 09:15:25;;;;;;;5.73;5.23;;;;;;;22.14;42.44;97729.72;6214194;28;20239;-85
2022/05/04 09:18:34;;;;;;;3.73;3.43;;;;;;;22.89;42.28;97730.84;6187639;28;20221;-84
2022/05/04 09:21:37;;;;;;;4.80;4.13;;;;;;;22.86;40.64;97724.00;6199012;28;20255;-85
2022/05/04 09:24:43;;;;;;;4.77;3.60;;;;;;;23.57;40.09;97727.19;6211243;28;20234;-85
2022/05/04 09:27:48;;;;;;;4.03;3.47;;;;;;;24.17;39.34;97725.38;6197547;28;20589;-85
2022/05/04 09:30:57;;;;;;;6.03;5.27;;;;;;;24.41;38.14;97719.38;6227653;28;20216;-85
2022/05/04 09:34:05;;;;;;;4.40;4.00;;;;;;;23.43;40.24;97718.22;6211534;28;20307;-85
2022/05/04 09:47:22;;;;;;;4.20;3.80;;;;;;;21.76;43.35;97728.34;6222831;28;20804;-84
2022/05/04 09:50:27;;;;;;;3.83;3.53;;;;;;;21.81;43.42;97726.72;6203445;28;20248;-85
2022/05/04 09:53:29;;;;;;;4.30;3.90;;;;;;;22.09;43.99;97721.41;6181115;28;20323;-84
2022/05/04 09:56:31;;;;;;;5.27;4.40;;;;;;;22.85;43.37;97713.44;6217574;28;20407;-84
2022/05/04 09:59:36;;;;;;;3.57;3.07;;;;;;;23.91;41.67;97705.47;6210562;28;20338;-84
2022/05/04 10:02:39;;;;;;;7.50;5.60;;;;;;;24.61;38.52;97703.97;6210187;28;20684;-85
2022/05/04 10:05:43;;;;;;;4.27;3.87;;;;;;;25.42;38.37;97691.84;6210536;28;20318;-85
2022/05/04 10:08:45;;;;;;;4.07;3.40;;;;;;;25.12;37.44;97686.16;6194291;28;20350;-84
2022/05/04 10:11:47;;;;;;;4.13;3.73;;;;;;;24.63;38.08;97687.56;6194588;28;20342;-85
2022/05/04 10:14:51;;;;;;;4.40;4.00;;;;;;;23.52;39.23;97675.78;6210145;28;20575;-85
2022/05/04 10:18:24;;;;;;;3.23;3.03;;;;;;;23.04;41.24;97686.63;6185130;28;20241;-85
2022/05/04 10:21:26;;;;;;;3.77;3.40;;;;;;;22.84;42.35;97677.63;6211004;28;20247;-85
2022/05/04 10:24:35;;;;;;;3.80;3.40;;;;;;;22.76;43.14;97683.16;6240568;28;20345;-85
2022/05/04 10:27:40;;;;;;;4.90;4.40;;;;;;;22.46;41.48;97679.88;6197086;28;20650;-85
2022/05/04 10:30:53;;;;;;;5.33;4.63;;;;;;;22.40;40.87;97678.81;6216222;28;20698;-86
2022/05/04 10:34:03;;;;;;;5.53;4.10;;;;;;;22.73;40.74;97668.25;6208544;28;20700;-84
2022/05/04 10:37:19;;;;;;;5.73;5.23;;;;;;;23.65;39.92;97672.28;6218659;28;20362;-84
2022/05/04 10:40:42;;;;;;;5.87;4.50;;;;;;;24.86;38.17;97660.06;6215976;28;20276;-86
2022/05/04 10:43:47;;;;;;;7.67;4.37;;;;;;;24.40;37.87;97663.75;6215539;28;20719;-84
2022/05/04 10:46:54;;;;;;;5.83;3.77;;;;;;;24.67;37.88;97651.00;6216049;28;20223;-84
2022/05/04 10:50:03;;;;;;;4.57;4.13;;;;;;;24.63;38.69;97645.22;6215621;28;20230;-85
2022/05/04 10:53:04;;;;;;;5.17;4.67;;;;;;;23.71;39.01;97645.31;6216155;28;20231;-84
2022/05/04 10:56:12;;;;;;;7.47;6.70;;;;;;;22.90;40.52;97633.75;6231561;28;20700;-85
2022/05/04 10:59:30;;;;;;;7.03;6.40;;;;;;;22.57;41.26;97638.97;6216165;28;20627;-85
2022/05/04 11:02:32;;;;;;;8.33;6.40;;;;;;;23.89;38.98;97629.34;6199301;28;20240;-85
2022/05/04 11:05:47;;;;;;;10.77;7.90;;;;;;;24.62;36.17;97629.22;6231710;28;20235;-85
2022/05/04 11:08:49;;;;;;;8.20;6.50;;;;;;;25.38;35.82;97622.00;6214676;28;20228;-86
2022/05/04 11:11:53;;;;;;;6.60;6.00;;;;;;;24.41;37.74;97627.63;6199406;28;20239;-85
2022/05/04 11:14:55;;;;;;;8.77;6.83;;;;;;;23.80;37.51;97622.53;6231227;28;20603;-85
2022/05/04 11:17:57;;;;;;;5.13;4.63;;;;;;;23.48;38.46;97629.53;6198936;28;20220;-85
2022/05/04 11:21:01;;;;;;;7.50;6.53;;;;;;;24.21;37.83;97634.91;6214447;28;20231;-85
2022/05/04 11:24:06;;;;;;;9.80;8.80;;;;;;;24.13;36.50;97633.28;6231979;28;20618;-85
2022/05/04 11:27:08;;;;;;;8.07;7.33;;;;;;;23.60;37.99;97631.63;6232711;28;20212;-85
2022/05/04 11:30:13;;;;;;;8.60;7.70;;;;;;;22.81;39.36;97637.66;6198716;28;20302;-85
2022/05/04 11:33:15;;;;;;;9.53;7.60;;;;;;;22.93;40.93;97640.59;6215890;28;20216;-85
2022/05/04 11:36:22;;;;;;;9.00;6.83;;;;;;;23.46;40.19;97644.22;6198655;28;20285;-85
2022/05/04 11:39:28;;;;;;;12.87;10.50;;;;;;;23.57;37.47;97634.75;6214009;28;20684;-85
2022/05/04 11:42:31;;;;;;;6.97;6.27;;;;;;;23.24;39.01;97638.22;6214695;28;20319;-85
2022/05/04 11:45:33;;;;;;;8.87;7.80;;;;;;;23.34;39.21;97637.81;6216064;28;20228;-84
2022/05/04 11:48:42;;;;;;;7.53;6.73;;;;;;;22.85;39.76;97633.53;6198490;28;20235;-85
2022/05/04 11:51:44;;;;;;;5.30;4.80;;;;;;;22.54;41.01;97642.06;6198126;28;20240;-84
2022/05/04 11:54:46;;;;;;;9.50;7.53;;;;;;;22.01;40.51;97648.97;6247691;28;20239;-84
2022/05/04 11:57:49;;;;;;;7.33;6.60;;;;;;;21.21;41.72;97651.97;6189514;28;20236;-86
2022/05/04 12:00:51;;;;;;;4.33;3.60;;;;;;;21.02;43.10;97650.69;6206245;28;20258;-85
2022/05/04 12:03:54;;;;;;;3.30;3.00;;;;;;;21.13;45.36;97644.84;6213246;28;20235;-85
2022/05/04 12:06:59;;;;;;;4.00;3.40;;;;;;;20.88;46.20;97643.50;6230043;28;20263;-85
2022/05/04 12:10:01;;;;;;;3.40;3.03;;;;;;;20.73;48.33;97659.66;6214107;28;20716;-84
2022/05/04 12:13:04;;;;;;;6.50;5.33;;;;;;;20.34;50.06;97680.53;6213163;28;20308;-85
2022/05/04 12:16:08;;;;;;;5.60;3.93;;;;;;;19.55;50.82;97698.88;6213401;28;20613;-85
2022/05/04 12:19:11;;;;;;;4.37;3.10;;;;;;;18.79;51.86;97718.31;6230920;28;20236;-85
2022/05/04 12:22:13;;;;;;;7.40;3.20;;;;;;;18.24;53.06;97715.66;6213166;28;20312;-85
2022/05/04 12:25:20;;;;;;;5.10;2.63;;;;;;;17.78;57.31;97710.00;6213540;28;20522;-85
2022/05/04 12:28:23;;;;;;;4.83;2.43;;;;;;;17.37;58.59;97709.13;6213163;28;20236;-85
2022/05/04 12:34:45;;;;;;;3.13;2.17;;;;;;;16.71;61.36;97720.63;6203975;28;20245;-84
2022/05/04 12:37:51;;;;;;;4.83;2.80;;;;;;;16.50;61.91;97707.69;6214541;28;20228;-84
2022/05/04 12:40:53;;;;;;;7.23;2.90;;;;;;;16.31;63.04;97702.59;6212454;28;20224;-85
2022/05/04 12:44:04;;;;;;;7.83;3.00;;;;;;;15.92;63.81;97701.34;6212952;28;20224;-85
2022/05/04 12:47:06;;;;;;;5.33;2.60;;;;;;;15.41;64.68;97694.94;6212468;28;20651;-84
2022/05/04 12:50:08;;;;;;;6.17;3.07;;;;;;;15.10;65.96;97689.16;6211907;28;20231;-84
2022/05/04 12:53:10;;;;;;;3.87;2.40;;;;;;;14.74;67.66;97699.75;6196222;28;20236;-84
2022/05/04 12:59:33;;;;;;;6.30;3.47;;;;;;;14.39;69.62;97689.84;6229742;28;20758;-84
2022/05/04 13:02:35;;;;;;;12.40;4.13;;;;;;;14.26;70.65;97686.69;6213430;28;20737;-84
2022/05/04 13:05:39;;;;;;;7.17;3.67;;;;;;;14.25;71.15;97670.91;6214763;28;20241;-84
2022/05/04 13:08:41;;;;;;;6.50;3.27;;;;;;;14.15;71.67;97670.94;6201231;28;20239;-84
2022/05/04 13:11:43;;;;;;;6.37;3.47;;;;;;;14.09;72.62;97663.53;6214206;28;20713;-84
2022/05/04 13:14:45;;;;;;;6.00;3.37;;;;;;;14.18;73.21;97664.47;6231619;28;20721;-84
2022/05/04 13:17:47;;;;;;;6.40;3.70;;;;;;;14.25;73.96;97660.28;6214647;28;20409;-84
2022/05/04 13:20:49;;;;;;;4.50;3.20;;;;;;;14.32;74.68;97654.22;6228550;28;20235;-83
2022/05/04 13:23:52;;;;;;;6.20;3.40;;;;;;;14.35;73.85;97647.78;6196094;28;20319;-84
2022/05/04 13:26:54;;;;;;;5.90;3.93;;;;;;;14.18;74.42;97645.91;6211606;28;20247;-84
2022/05/04 13:29:56;;;;;;;5.37;3.17;;;;;;;14.03;75.18;97650.88;6212635;28;20604;-84
2022/05/04 13:32:59;;;;;;;3.63;3.27;;;;;;;14.12;75.26;97654.47;6202847;28;20232;-84
2022/05/04 13:36:01;;;;;;;6.13;3.23;;;;;;;14.30;74.55;97645.56;6209584;28;20648;-84
2022/05/04 13:39:04;;;;;;;4.40;3.40;;;;;;;14.51;74.33;97634.72;6210866;28;20671;-84
2022/05/04 13:42:07;;;;;;;7.57;4.13;;;;;;;14.56;74.46;97640.44;6211129;28;20708;-84
2022/05/04 13:45:10;;;;;;;8.47;3.90;;;;;;;14.50;74.73;97641.03;6213013;28;20362;-84
2022/05/04 13:48:12;;;;;;;6.67;4.47;;;;;;;14.49;74.95;97635.84;6186855;28;20209;-84
2022/05/04 13:54:35;;;;;;;5.23;3.57;;;;;;;14.98;75.05;97630.06;6211000;28;20252;-84
2022/05/04 13:57:38;;;;;;;5.80;4.00;;;;;;;15.20;74.35;97623.47;6227165;28;20230;-84
2022/05/04 14:00:41;;;;;;;7.60;4.97;;;;;;;15.46;73.72;97618.19;6195038;28;20228;-83
2022/05/04 14:03:43;;;;;;;5.07;4.33;;;;;;;15.77;73.15;97626.59;6210088;28;20300;-84
2022/05/04 14:06:46;;;;;;;4.97;4.23;;;;;;;16.41;71.99;97620.72;6194815;28;20277;-84
2022/05/04 14:09:48;;;;;;;7.97;5.40;;;;;;;17.15;70.02;97613.78;6210863;28;20245;-84
2022/05/04 14:12:50;;;;;;;5.50;4.50;;;;;;;17.91;67.65;97613.38;6211229;28;20239;-84
2022/05/04 14:15:54;;;;;;;6.03;4.63;;;;;;;18.94;64.39;97612.28;6202469;28;20282;-84
2022/05/04 14:18:57;;;;;;;4.83;4.33;;;;;;;19.99;61.23;97612.41;6187929;28;20240;-84
2022/05/04 14:21:59;;;;;;;4.50;4.10;;;;;;;20.81;58.53;97607.75;6203564;28;20240;-84
2022/05/04 14:25:01;;;;;;;3.83;3.43;;;;;;;21.49;56.39;97601.84;6214057;28;20265;-84
2022/05/04 14:28:03;;;;;;;4.27;3.87;;;;;;;21.90;55.88;97601.13;6228301;28;20272;-84
2022/05/04 14:31:05;;;;;;;4.27;3.87;;;;;;;22.75;54.53;97609.72;6228909;28;20242;-84
2022/05/04 14:34:07;;;;;;;5.90;3.33;;;;;;;23.28;53.79;97614.38;6211180;28;20227;-84
2022/05/04 14:37:09;;;;;;;3.07;2.57;;;;;;;23.55;52.53;97626.88;6211441;28;20766;-84
2022/05/04 14:40:12;;;;;;;3.60;3.30;;;;;;;23.53;53.86;97627.09;6212872;28;20263;-85
2022/05/04 14:43:14;;;;;;;7.63;3.17;;;;;;;23.51;54.25;97631.84;6229172;28;20236;-84
2022/05/04 14:46:16;;;;;;;3.90;3.50;;;;;;;23.15;55.30;97634.03;6212185;28;20726;-85
2022/05/04 14:49:18;;;;;;;3.60;3.30;;;;;;;22.46;56.86;97634.16;6213604;28;20246;-84
2022/05/04 14:52:20;;;;;;;4.10;3.70;;;;;;;22.52;56.54;97630.69;6202197;28;20291;-85
2022/05/04 14:55:22;;;;;;;3.23;2.93;;;;;;;22.97;55.02;97629.22;6208599;28;20251;-85
2022/05/04 14:58:24;;;;;;;3.80;3.37;;;;;;;24.09;52.47;97631.19;6196288;28;20220;-86
2022/05/04 15:01:26;;;;;;;4.87;3.50;;;;;;;24.84;50.51;97635.19;6211763;28;20239;-84
2022/05/04 15:07:50;;;;;;;5.30;3.73;;;;;;;25.82;48.70;97631.06;6225787;28;20581;-84
2022/05/04 15:10:52;;;;;;;3.97;3.17;;;;;;;26.09;47.88;97627.06;6209923;28;20509;-84
2022/05/04 15:13:54;;;;;;;4.37;3.53;;;;;;;26.18;47.70;97627.59;6212851;28;20773;-84
2022/05/04 15:16:56;;;;;;;3.87;3.33;;;;;;;25.56;48.80;97633.94;6214486;28;20242;-84